Warren, ID (83671)

9:19 AM MST on January 22, 2017 (GMT -0700)
MSCSI1 | | Change Station
Active Advisory: Winter Weather Advisory

Elev 6517 ft 45.19 °N, 115.97 °W | Updated 2 days ago

Mostly Cloudy
Mostly Cloudy
27.0 °F
Feels Like 21 °F
N
5.0
Wind Variable Wind from SSW
Gusts 10.0 mph

Today
High -- | Low -- °F
--% Chance of Precip.
Yesterday
High -- | Low -- °F
Precip. -- in
Pressure 29.75 in
Visibility 10.0 miles
Clouds Scattered Clouds 9500 ft
Windchill 21 °F
Dew Point Not available.
Humidity Not available.
Rainfall 0.04 in
Snow Depth Not available.
8:12 AM 5:36 PM
Waning Crescent, 25% visible
METAR KMYL 221551Z AUTO 35003KT 10SM SCT095 M09/M10 A2964 RMK AO2 SLP074 T10891100
Pressure 29.75 in
Visibility 10.0 miles
Clouds Scattered Clouds 9500 ft
Windchill 21 °F
Dew Point Not available.
Humidity Not available.
Rainfall 0.04 in
Snow Depth Not available.
8:12 AM 5:36 PM
Waning Crescent, 25% visible
METAR KMYL 221551Z AUTO 35003KT 10SM SCT095 M09/M10 A2964 RMK AO2 SLP074 T10891100

Get Your Daily Forecast Email!

Thanks for signing up!

Be on the lookout for a verification email in your inbox.

You'll start receiving the daily forecast at 8 AM.

×

10-Day Weather Forecast

Almanac

Astronomy

Jan. 22, 2017 Rise Set
Actual Time
Civil Twilight
Nautical Twilight
Astronomical Twilight
Moon
Length of Visible Light
Length of Day
Tomorrow will be .
, % of the Moon is Illuminated

Today's Extremes

State Highs State Lows

Community

WunderPhotos

Upload Photos

1,962,540 photos uploaded!

WunderBlog® & News

Nearby

Air Quality

  Air Quality AQ Index Pollutant
Not available.

Snow Depth

Station Depth Elevation

Earthquake Activity

City Distance Mag. Time & Date
Minimum magnitude displayed is 2.5.

Coastal Water Temperatures

Place Temperature

Stations

Nearby Weather Stations

Station Location Temp. Windchill Dew Point Humidity Wind Precip. Elev Updated Type
                   

Watches & Warnings

Winter Weather Advisory
Issued: 12:59 PM PST Jan. 21, 2017 – National Weather Service

... Winter Weather Advisory in effect from 1 PM Sunday to 4 am PST
Monday above 2500 feet...

* impacts/timing: light snow will develop Sunday afternoon and
become moderate at times through Sunday evening. A change in
roads from dry to snowcovered is expected, which will make for slick
travel conditions.

* Snow accumulations: 1 to 4 inches.

* Locations impacted include: Elk River, Highway 11 Pierce to
Headquarters, Pierce, Dixie, Elk City, and Highway 12 Lowell
to Lolo Pass